< Cyclone 201202 2012 Season Cyclone 201207 >
Cyclone 201204 (Grant)
General InformationTrack Information on Google MapsDetailed Wind InformationList of All Images || ResourceGoogle EarthGE AnimationAtom FeedGeoJSON
Detalied Best Track (Time Zone = UTC)
Year Month Day Hour Lat. Long. Pressure (hPa) Wind (kt) Class Image Chart
2011 12 21 00 -10.4 134.5 1004 20 2 Image --
2011 12 21 03 -9.9 133.6 1003 20 0 Image --
2011 12 21 06 -9.5 132.3 1000 20 2 Image --
2011 12 21 12 -9.5 132.3 1001 20 2 Image --
2011 12 21 15 -9.6 132.3 1000 20 2 Image --
2011 12 21 18 -9.7 132.4 1000 20 2 Image --
2011 12 21 21 -9.8 132.5 1000 20 2 Image --
2011 12 22 00 -10.0 132.4 1000 20 2 Image --
2011 12 22 03 -10.1 132.2 1000 20 2 Image --
2011 12 22 06 -10.1 132.0 999 20 2 Image --
2011 12 22 09 -10.1 131.5 999 23 2 Image --
2011 12 22 12 -10.2 131.1 999 20 2 Image --
2011 12 22 15 -10.3 131.1 999 20 2 Image --
2011 12 22 18 -10.4 131.3 999 20 2 Image --
2011 12 22 21 -10.5 131.5 999 25 2 Image --
2011 12 23 00 -10.5 131.7 999 25 2 Image --
2011 12 23 03 -10.6 132.2 998 25 2 Image --
2011 12 23 06 -10.7 132.5 998 25 2 Image --
2011 12 23 09 -10.5 132.2 997 25 2 Image --
2011 12 23 12 -10.5 132.0 999 25 2 Image --
2011 12 23 15 -10.5 131.8 998 25 2 Image --
2011 12 23 18 -10.6 131.5 998 25 2 Image --
2011 12 23 21 -10.6 131.4 998 25 2 Image --
2011 12 24 00 -10.7 131.4 998 25 2 Image --
2011 12 24 03 -10.7 131.4 998 25 2 Image --
2011 12 24 06 -10.7 131.4 997 25 2 Image --
2011 12 24 09 -10.7 131.6 996 30 2 Image --
2011 12 24 12 -10.7 131.9 996 30 2 Image --
2011 12 24 15 -10.6 132.1 995 30 2 Image --
2011 12 24 18 -10.5 132.4 993 35 3 Image --
2011 12 24 21 -10.6 132.4 993 35 3 Image --
2011 12 25 00 -10.6 132.4 993 35 3 Image --
2011 12 25 03 -10.8 132.8 984 45 3 Image --
2011 12 25 06 -10.9 132.7 982 50 4 Image --
2011 12 25 09 -11.1 132.7 981 50 4 Image --
2011 12 25 12 -11.4 132.7 978 55 4 Image --
2011 12 25 15 -11.7 132.5 981 55 4 Image --
2011 12 25 18 -11.9 132.7 984 50 4 Image --
2011 12 25 21 -12.1 132.6 987 45 3 Image --
2011 12 26 00 -12.3 132.6 990 40 3 Image --
2011 12 26 03 -12.4 132.6 995 30 2 Image --
2011 12 26 06 -12.5 132.6 996 30 2 Image --
2011 12 26 09 -13.0 132.6 998 25 2 Image --
2011 12 26 12 -13.1 132.6 998 20 2 Image --
2011 12 26 15 -13.2 132.8 998 20 2 Image --
2011 12 26 18 -13.3 132.9 997 20 2 Image --
2011 12 26 21 -13.3 132.9 997 20 2 Image --
2011 12 27 00 -13.4 132.9 999 20 2 Image --
2011 12 27 03 -13.6 133.1 1000 20 2 Image --
2011 12 27 06 -13.9 133.6 999 20 2 Image --
2011 12 27 09 -13.9 134.0 999 20 2 Image --
2011 12 27 12 -13.9 134.3 1000 20 2 Image --
2011 12 27 15 -13.9 134.5 1002 20 2 Image --
2011 12 27 18 -13.9 134.7 1001 20 2 Image --
2011 12 27 21 -13.9 134.9 1001 15 2 Image --
2011 12 28 00 -14.0 135.3 1001 20 2 Image --
2011 12 28 03 -14.0 135.8 1000 25 2 Image --
2011 12 28 06 -14.0 136.2 1000 25 2 Image --
2011 12 28 12 -14.2 137.1 999 25 0 Image --
2011 12 28 18 -14.3 138.0 998 25 2 Image --
2011 12 29 00 -14.3 139.2 1001 20 2 Image --
2011 12 29 03 -14.0 139.8 1001.5 20 2 Image --
2011 12 29 06 -13.9 140.2 1002 20 2 Image --
2011 12 29 09 -13.7 140.4 1000 20 0 Image --
2011 12 29 12 -13.6 140.7 1001 20 2 Image --
2011 12 29 15 -13.6 141.1 1000.5 20 0 Image --
2011 12 29 18 -13.6 141.5 1000 20 2 Image --
2011 12 29 21 -13.6 142.0 1000 20 2 Image --
2011 12 30 00 -13.5 142.7 1000 20 2 Image --
2011 12 30 03 -13.5 143.2 1000.5 21.25 0 Image --
2011 12 30 06 -13.5 143.7 1001 22.5 0 Image --
2011 12 30 12 -13.0 145.4 1001.5 23.75 0 Image --
2011 12 30 18 -12.8 146.1 1002 25 2 Image --
2011 12 31 00 -12.4 146.9 1003 25 0 Image --
2011 12 31 06 -12.5 148.5 1004 25 2 Image --
< Cyclone 201202 2012 Season Cyclone 201207 >

Help